sensor_id;sensor_type;location;lat;lon;timestamp;P1;durP1;ratioP1;P2;durP2;ratioP2
1020;SDS011;499;42.648;23.270;2022-07-10T00:00:33;22.37;;;20.57;;
1020;SDS011;499;42.648;23.270;2022-07-10T00:03:01;21.43;;;19.73;;
1020;SDS011;499;42.648;23.270;2022-07-10T00:05:28;21.67;;;20.05;;
1020;SDS011;499;42.648;23.270;2022-07-10T00:07:55;21.93;;;20.20;;
1020;SDS011;499;42.648;23.270;2022-07-10T00:10:23;20.43;;;18.83;;
1020;SDS011;499;42.648;23.270;2022-07-10T00:12:50;20.63;;;19.07;;
1020;SDS011;499;42.648;23.270;2022-07-10T00:15:19;21.77;;;20.00;;
1020;SDS011;499;42.648;23.270;2022-07-10T00:17:46;21.48;;;19.67;;
1020;SDS011;499;42.648;23.270;2022-07-10T00:20:14;21.10;;;19.33;;
1020;SDS011;499;42.648;23.270;2022-07-10T00:22:42;21.30;;;19.50;;
1020;SDS011;499;42.648;23.270;2022-07-10T00:25:10;21.70;;;20.00;;
1020;SDS011;499;42.648;23.270;2022-07-10T00:27:38;21.50;;;19.50;;
1020;SDS011;499;42.648;23.270;2022-07-10T00:30:06;20.55;;;18.85;;
1020;SDS011;499;42.648;23.270;2022-07-10T00:32:36;21.10;;;19.50;;
1020;SDS011;499;42.648;23.270;2022-07-10T00:35:03;20.10;;;18.40;;
1020;SDS011;499;42.648;23.270;2022-07-10T00:37:31;20.70;;;19.03;;
1020;SDS011;499;42.648;23.270;2022-07-10T00:39:58;20.27;;;18.57;;
1020;SDS011;499;42.648;23.270;2022-07-10T00:42:25;19.37;;;17.87;;
1020;SDS011;499;42.648;23.270;2022-07-10T00:44:53;20.47;;;18.80;;
1020;SDS011;499;42.648;23.270;2022-07-10T00:47:20;21.37;;;19.50;;
1020;SDS011;499;42.648;23.270;2022-07-10T00:49:49;18.77;;;17.35;;
1020;SDS011;499;42.648;23.270;2022-07-10T00:52:17;19.90;;;18.07;;
1020;SDS011;499;42.648;23.270;2022-07-10T00:54:45;18.63;;;17.13;;
1020;SDS011;499;42.648;23.270;2022-07-10T00:57:16;18.70;;;17.27;;
1020;SDS011;499;42.648;23.270;2022-07-10T00:59:43;18.93;;;17.40;;
1020;SDS011;499;42.648;23.270;2022-07-10T01:02:11;18.60;;;17.20;;
1020;SDS011;499;42.648;23.270;2022-07-10T01:04:39;20.17;;;18.53;;
1020;SDS011;499;42.648;23.270;2022-07-10T01:07:07;19.93;;;18.43;;
1020;SDS011;499;42.648;23.270;2022-07-10T01:09:34;18.70;;;17.30;;
1020;SDS011;499;42.648;23.270;2022-07-10T01:12:02;18.00;;;16.70;;
1020;SDS011;499;42.648;23.270;2022-07-10T01:14:30;19.23;;;17.73;;
1020;SDS011;499;42.648;23.270;2022-07-10T01:16:57;18.93;;;17.50;;
1020;SDS011;499;42.648;23.270;2022-07-10T01:19:24;19.20;;;17.60;;
1020;SDS011;499;42.648;23.270;2022-07-10T01:21:53;18.13;;;16.70;;
1020;SDS011;499;42.648;23.270;2022-07-10T01:24:20;19.27;;;17.47;;
1020;SDS011;499;42.648;23.270;2022-07-10T01:26:47;18.47;;;17.07;;
1020;SDS011;499;42.648;23.270;2022-07-10T01:29:14;18.67;;;17.27;;
1020;SDS011;499;42.648;23.270;2022-07-10T01:31:41;16.47;;;15.17;;
1020;SDS011;499;42.648;23.270;2022-07-10T01:34:10;16.17;;;14.80;;
1020;SDS011;499;42.648;23.270;2022-07-10T01:36:37;15.97;;;14.77;;
1020;SDS011;499;42.648;23.270;2022-07-10T01:39:06;16.97;;;15.67;;
1020;SDS011;499;42.648;23.270;2022-07-10T01:41:33;16.77;;;15.37;;
1020;SDS011;499;42.648;23.270;2022-07-10T01:44:00;16.60;;;15.30;;
1020;SDS011;499;42.648;23.270;2022-07-10T01:46:28;16.30;;;15.00;;
1020;SDS011;499;42.648;23.270;2022-07-10T01:48:55;16.47;;;15.27;;
1020;SDS011;499;42.648;23.270;2022-07-10T01:51:22;15.43;;;14.13;;
1020;SDS011;499;42.648;23.270;2022-07-10T01:53:50;16.93;;;15.53;;
1020;SDS011;499;42.648;23.270;2022-07-10T01:56:18;16.67;;;15.27;;
1020;SDS011;499;42.648;23.270;2022-07-10T01:58:45;16.67;;;15.33;;
1020;SDS011;499;42.648;23.270;2022-07-10T02:01:12;17.27;;;15.87;;
1020;SDS011;499;42.648;23.270;2022-07-10T02:03:39;16.87;;;15.60;;
1020;SDS011;499;42.648;23.270;2022-07-10T02:06:24;16.40;;;15.00;;
1020;SDS011;499;42.648;23.270;2022-07-10T02:08:51;16.37;;;14.97;;
1020;SDS011;499;42.648;23.270;2022-07-10T02:11:20;17.50;;;15.90;;
1020;SDS011;499;42.648;23.270;2022-07-10T02:13:47;17.20;;;15.70;;
1020;SDS011;499;42.648;23.270;2022-07-10T02:16:14;17.20;;;15.43;;
1020;SDS011;499;42.648;23.270;2022-07-10T02:18:41;17.87;;;16.47;;
1020;SDS011;499;42.648;23.270;2022-07-10T02:21:08;16.70;;;15.50;;
1020;SDS011;499;42.648;23.270;2022-07-10T02:23:35;16.98;;;15.48;;
1020;SDS011;499;42.648;23.270;2022-07-10T02:26:04;15.73;;;14.53;;
1020;SDS011;499;42.648;23.270;2022-07-10T02:28:32;17.50;;;16.13;;
1020;SDS011;499;42.648;23.270;2022-07-10T02:31:00;15.67;;;14.43;;
1020;SDS011;499;42.648;23.270;2022-07-10T02:33:27;16.33;;;15.03;;
1020;SDS011;499;42.648;23.270;2022-07-10T02:35:54;16.33;;;14.93;;
1020;SDS011;499;42.648;23.270;2022-07-10T02:38:21;15.67;;;14.43;;
1020;SDS011;499;42.648;23.270;2022-07-10T02:40:48;16.90;;;15.50;;
1020;SDS011;499;42.648;23.270;2022-07-10T02:43:15;15.53;;;14.13;;
1020;SDS011;499;42.648;23.270;2022-07-10T02:45:43;17.50;;;16.17;;
1020;SDS011;499;42.648;23.270;2022-07-10T02:48:11;17.43;;;15.93;;
1020;SDS011;499;42.648;23.270;2022-07-10T02:50:38;18.57;;;17.10;;
1020;SDS011;499;42.648;23.270;2022-07-10T02:53:05;17.63;;;15.93;;
1020;SDS011;499;42.648;23.270;2022-07-10T02:55:32;17.37;;;15.97;;
1020;SDS011;499;42.648;23.270;2022-07-10T02:57:59;16.23;;;14.93;;
1020;SDS011;499;42.648;23.270;2022-07-10T03:00:26;16.00;;;14.70;;
1020;SDS011;499;42.648;23.270;2022-07-10T03:02:55;17.23;;;15.73;;
1020;SDS011;499;42.648;23.270;2022-07-10T03:05:22;17.17;;;15.77;;
1020;SDS011;499;42.648;23.270;2022-07-10T03:07:49;19.33;;;17.83;;
1020;SDS011;499;42.648;23.270;2022-07-10T03:10:17;18.07;;;16.67;;
1020;SDS011;499;42.648;23.270;2022-07-10T03:12:44;17.73;;;16.33;;
1020;SDS011;499;42.648;23.270;2022-07-10T03:15:12;18.30;;;16.70;;
1020;SDS011;499;42.648;23.270;2022-07-10T03:17:39;17.30;;;15.90;;
1020;SDS011;499;42.648;23.270;2022-07-10T03:20:09;17.00;;;15.60;;
1020;SDS011;499;42.648;23.270;2022-07-10T03:22:36;16.70;;;15.43;;
1020;SDS011;499;42.648;23.270;2022-07-10T03:25:04;15.52;;;14.32;;
1020;SDS011;499;42.648;23.270;2022-07-10T03:27:31;17.43;;;16.13;;
1020;SDS011;499;42.648;23.270;2022-07-10T03:29:58;17.40;;;15.80;;
1020;SDS011;499;42.648;23.270;2022-07-10T03:32:26;17.92;;;16.52;;
1020;SDS011;499;42.648;23.270;2022-07-10T03:34:53;17.90;;;16.30;;
1020;SDS011;499;42.648;23.270;2022-07-10T03:37:21;15.85;;;14.65;;
1020;SDS011;499;42.648;23.270;2022-07-10T03:39:48;15.40;;;14.20;;
1020;SDS011;499;42.648;23.270;2022-07-10T03:42:16;16.00;;;14.63;;
1020;SDS011;499;42.648;23.270;2022-07-10T03:44:43;15.60;;;14.30;;
1020;SDS011;499;42.648;23.270;2022-07-10T03:47:10;16.47;;;15.10;;
1020;SDS011;499;42.648;23.270;2022-07-10T03:49:37;15.67;;;14.47;;
1020;SDS011;499;42.648;23.270;2022-07-10T03:52:05;16.07;;;14.83;;
1020;SDS011;499;42.648;23.270;2022-07-10T03:54:34;16.17;;;14.87;;
1020;SDS011;499;42.648;23.270;2022-07-10T03:57:01;15.53;;;14.33;;
1020;SDS011;499;42.648;23.270;2022-07-10T03:59:45;16.93;;;15.53;;
1020;SDS011;499;42.648;23.270;2022-07-10T04:02:12;16.07;;;14.67;;
1020;SDS011;499;42.648;23.270;2022-07-10T04:04:39;15.23;;;14.03;;
1020;SDS011;499;42.648;23.270;2022-07-10T04:07:06;16.90;;;15.50;;
1020;SDS011;499;42.648;23.270;2022-07-10T04:09:37;14.90;;;13.70;;
1020;SDS011;499;42.648;23.270;2022-07-10T04:12:04;14.97;;;13.67;;
1020;SDS011;499;42.648;23.270;2022-07-10T04:14:32;14.63;;;13.43;;
1020;SDS011;499;42.648;23.270;2022-07-10T04:16:59;13.57;;;12.47;;
1020;SDS011;499;42.648;23.270;2022-07-10T04:19:26;14.80;;;13.67;;
1020;SDS011;499;42.648;23.270;2022-07-10T04:21:53;14.13;;;12.83;;
1020;SDS011;499;42.648;23.270;2022-07-10T04:24:20;13.40;;;12.23;;
1020;SDS011;499;42.648;23.270;2022-07-10T04:26:48;13.47;;;12.30;;
1020;SDS011;499;42.648;23.270;2022-07-10T04:29:15;12.80;;;11.80;;
1020;SDS011;499;42.648;23.270;2022-07-10T04:31:43;12.90;;;11.80;;
1020;SDS011;499;42.648;23.270;2022-07-10T04:34:10;13.67;;;12.57;;
1020;SDS011;499;42.648;23.270;2022-07-10T04:36:37;12.57;;;11.60;;
1020;SDS011;499;42.648;23.270;2022-07-10T04:39:04;11.90;;;10.90;;
1020;SDS011;499;42.648;23.270;2022-07-10T04:41:31;12.67;;;11.67;;
1020;SDS011;499;42.648;23.270;2022-07-10T04:43:59;11.30;;;10.30;;
1020;SDS011;499;42.648;23.270;2022-07-10T04:46:26;11.47;;;10.60;;
1020;SDS011;499;42.648;23.270;2022-07-10T04:48:53;11.97;;;11.00;;
1020;SDS011;499;42.648;23.270;2022-07-10T04:51:21;11.33;;;10.33;;
1020;SDS011;499;42.648;23.270;2022-07-10T04:53:48;11.00;;;10.10;;
1020;SDS011;499;42.648;23.270;2022-07-10T04:56:15;10.90;;;10.00;;
1020;SDS011;499;42.648;23.270;2022-07-10T04:58:42;10.47;;;9.67;;
1020;SDS011;499;42.648;23.270;2022-07-10T05:01:11;9.30;;;8.60;;
1020;SDS011;499;42.648;23.270;2022-07-10T05:03:38;9.50;;;8.80;;
1020;SDS011;499;42.648;23.270;2022-07-10T05:06:05;11.70;;;10.10;;
1020;SDS011;499;42.648;23.270;2022-07-10T05:08:33;9.90;;;9.20;;
1020;SDS011;499;42.648;23.270;2022-07-10T05:11:00;10.40;;;9.60;;
1020;SDS011;499;42.648;23.270;2022-07-10T05:13:27;10.30;;;9.40;;
1020;SDS011;499;42.648;23.270;2022-07-10T05:15:54;9.35;;;8.45;;
1020;SDS011;499;42.648;23.270;2022-07-10T05:18:22;9.20;;;8.47;;
1020;SDS011;499;42.648;23.270;2022-07-10T05:20:49;9.87;;;9.17;;
1020;SDS011;499;42.648;23.270;2022-07-10T05:23:16;10.03;;;9.27;;
1020;SDS011;499;42.648;23.270;2022-07-10T05:25:44;9.93;;;9.03;;
1020;SDS011;499;42.648;23.270;2022-07-10T05:28:11;10.37;;;9.47;;
1020;SDS011;499;42.648;23.270;2022-07-10T05:30:39;9.90;;;9.10;;
1020;SDS011;499;42.648;23.270;2022-07-10T05:33:07;10.27;;;9.40;;
1020;SDS011;499;42.648;23.270;2022-07-10T05:35:35;11.20;;;10.30;;
1020;SDS011;499;42.648;23.270;2022-07-10T05:38:02;10.13;;;9.30;;
1020;SDS011;499;42.648;23.270;2022-07-10T05:40:30;9.93;;;9.17;;
1020;SDS011;499;42.648;23.270;2022-07-10T05:42:57;9.27;;;8.57;;
1020;SDS011;499;42.648;23.270;2022-07-10T05:45:24;10.27;;;9.37;;
1020;SDS011;499;42.648;23.270;2022-07-10T05:47:51;9.00;;;8.10;;
1020;SDS011;499;42.648;23.270;2022-07-10T05:50:18;9.57;;;8.67;;
1020;SDS011;499;42.648;23.270;2022-07-10T05:52:47;9.60;;;8.70;;
1020;SDS011;499;42.648;23.270;2022-07-10T05:55:14;10.00;;;9.00;;
1020;SDS011;499;42.648;23.270;2022-07-10T05:57:41;8.97;;;8.07;;
1020;SDS011;499;42.648;23.270;2022-07-10T06:00:09;9.32;;;8.50;;
1020;SDS011;499;42.648;23.270;2022-07-10T06:02:36;8.20;;;7.60;;
1020;SDS011;499;42.648;23.270;2022-07-10T06:05:04;8.20;;;7.50;;
1020;SDS011;499;42.648;23.270;2022-07-10T06:07:31;9.20;;;8.37;;
1020;SDS011;499;42.648;23.270;2022-07-10T06:10:00;8.77;;;8.07;;
1020;SDS011;499;42.648;23.270;2022-07-10T06:12:27;7.80;;;7.20;;
1020;SDS011;499;42.648;23.270;2022-07-10T06:14:54;8.03;;;7.43;;
1020;SDS011;499;42.648;23.270;2022-07-10T06:17:22;7.93;;;7.17;;
1020;SDS011;499;42.648;23.270;2022-07-10T06:19:49;8.30;;;7.53;;
1020;SDS011;499;42.648;23.270;2022-07-10T06:22:16;8.20;;;7.60;;
1020;SDS011;499;42.648;23.270;2022-07-10T06:24:59;7.80;;;7.13;;
1020;SDS011;499;42.648;23.270;2022-07-10T06:27:29;7.30;;;6.70;;
1020;SDS011;499;42.648;23.270;2022-07-10T06:29:57;7.90;;;7.30;;
1020;SDS011;499;42.648;23.270;2022-07-10T06:32:24;6.93;;;6.43;;
1020;SDS011;499;42.648;23.270;2022-07-10T06:34:52;7.17;;;6.57;;
1020;SDS011;499;42.648;23.270;2022-07-10T06:37:19;6.77;;;6.17;;
1020;SDS011;499;42.648;23.270;2022-07-10T06:39:47;7.30;;;6.60;;
1020;SDS011;499;42.648;23.270;2022-07-10T06:42:16;7.60;;;6.90;;
1020;SDS011;499;42.648;23.270;2022-07-10T06:44:43;7.17;;;6.47;;
1020;SDS011;499;42.648;23.270;2022-07-10T06:47:11;7.63;;;6.50;;
1020;SDS011;499;42.648;23.270;2022-07-10T06:49:56;6.33;;;5.70;;
1020;SDS011;499;42.648;23.270;2022-07-10T06:52:23;7.40;;;6.70;;
1020;SDS011;499;42.648;23.270;2022-07-10T06:54:51;6.50;;;5.90;;
1020;SDS011;499;42.648;23.270;2022-07-10T06:57:20;7.70;;;6.90;;
1020;SDS011;499;42.648;23.270;2022-07-10T06:59:47;7.27;;;6.60;;
1020;SDS011;499;42.648;23.270;2022-07-10T07:02:15;7.03;;;6.43;;
1020;SDS011;499;42.648;23.270;2022-07-10T07:04:42;9.13;;;6.60;;
1020;SDS011;499;42.648;23.270;2022-07-10T07:07:09;7.10;;;5.93;;
1020;SDS011;499;42.648;23.270;2022-07-10T07:09:37;6.60;;;6.10;;
1020;SDS011;499;42.648;23.270;2022-07-10T07:12:04;6.63;;;6.00;;
1020;SDS011;499;42.648;23.270;2022-07-10T07:14:33;7.27;;;6.00;;
1020;SDS011;499;42.648;23.270;2022-07-10T07:17:00;7.17;;;6.53;;
1020;SDS011;499;42.648;23.270;2022-07-10T07:19:31;6.53;;;6.03;;
1020;SDS011;499;42.648;23.270;2022-07-10T07:22:18;7.07;;;6.47;;
1020;SDS011;499;42.648;23.270;2022-07-10T07:25:03;6.87;;;6.37;;
1020;SDS011;499;42.648;23.270;2022-07-10T07:27:31;6.63;;;6.10;;
1020;SDS011;499;42.648;23.270;2022-07-10T07:30:02;7.67;;;6.97;;
1020;SDS011;499;42.648;23.270;2022-07-10T07:32:30;7.03;;;6.53;;
1020;SDS011;499;42.648;23.270;2022-07-10T07:34:57;7.30;;;6.60;;
1020;SDS011;499;42.648;23.270;2022-07-10T07:37:34;8.23;;;6.97;;
1020;SDS011;499;42.648;23.270;2022-07-10T07:40:02;7.27;;;6.63;;
1020;SDS011;499;42.648;23.270;2022-07-10T07:42:30;6.70;;;6.20;;
1020;SDS011;499;42.648;23.270;2022-07-10T07:44:57;7.07;;;6.47;;
1020;SDS011;499;42.648;23.270;2022-07-10T07:47:26;7.38;;;6.65;;
1020;SDS011;499;42.648;23.270;2022-07-10T07:49:53;6.50;;;5.90;;
1020;SDS011;499;42.648;23.270;2022-07-10T07:52:20;6.93;;;6.23;;
1020;SDS011;499;42.648;23.270;2022-07-10T07:54:48;7.57;;;6.20;;
1020;SDS011;499;42.648;23.270;2022-07-10T07:57:16;6.27;;;5.67;;
1020;SDS011;499;42.648;23.270;2022-07-10T07:59:43;6.63;;;6.03;;
1020;SDS011;499;42.648;23.270;2022-07-10T08:02:11;10.83;;;5.80;;
1020;SDS011;499;42.648;23.270;2022-07-10T08:04:39;5.60;;;5.07;;
1020;SDS011;499;42.648;23.270;2022-07-10T08:07:06;5.67;;;5.03;;
1020;SDS011;499;42.648;23.270;2022-07-10T08:09:33;5.60;;;5.07;;
1020;SDS011;499;42.648;23.270;2022-07-10T08:12:01;7.20;;;4.77;;
1020;SDS011;499;42.648;23.270;2022-07-10T08:14:28;5.93;;;5.33;;
1020;SDS011;499;42.648;23.270;2022-07-10T08:16:55;4.97;;;4.47;;
1020;SDS011;499;42.648;23.270;2022-07-10T08:19:22;5.73;;;4.03;;
1020;SDS011;499;42.648;23.270;2022-07-10T08:21:51;4.90;;;4.50;;
1020;SDS011;499;42.648;23.270;2022-07-10T08:24:18;5.47;;;4.97;;
1020;SDS011;499;42.648;23.270;2022-07-10T08:26:45;5.30;;;4.90;;
1020;SDS011;499;42.648;23.270;2022-07-10T08:29:12;5.50;;;4.90;;
1020;SDS011;499;42.648;23.270;2022-07-10T08:31:40;5.50;;;5.10;;
1020;SDS011;499;42.648;23.270;2022-07-10T08:34:07;5.00;;;4.60;;
1020;SDS011;499;42.648;23.270;2022-07-10T08:36:34;5.97;;;5.47;;
1020;SDS011;499;42.648;23.270;2022-07-10T08:39:02;5.63;;;4.70;;
1020;SDS011;499;42.648;23.270;2022-07-10T08:41:30;7.27;;;5.20;;
1020;SDS011;499;42.648;23.270;2022-07-10T08:43:59;8.00;;;4.90;;
1020;SDS011;499;42.648;23.270;2022-07-10T08:46:27;5.73;;;5.07;;
1020;SDS011;499;42.648;23.270;2022-07-10T08:48:56;6.07;;;4.97;;
1020;SDS011;499;42.648;23.270;2022-07-10T08:51:30;6.60;;;5.47;;
1020;SDS011;499;42.648;23.270;2022-07-10T08:54:03;5.40;;;4.97;;
1020;SDS011;499;42.648;23.270;2022-07-10T08:56:32;6.40;;;5.13;;
1020;SDS011;499;42.648;23.270;2022-07-10T08:59:01;5.00;;;4.60;;
1020;SDS011;499;42.648;23.270;2022-07-10T09:01:29;5.37;;;4.87;;
1020;SDS011;499;42.648;23.270;2022-07-10T09:03:57;5.37;;;4.87;;
1020;SDS011;499;42.648;23.270;2022-07-10T09:06:24;4.93;;;4.53;;
1020;SDS011;499;42.648;23.270;2022-07-10T09:09:00;5.53;;;5.03;;
1020;SDS011;499;42.648;23.270;2022-07-10T09:11:31;5.27;;;4.77;;
1020;SDS011;499;42.648;23.270;2022-07-10T09:13:59;5.83;;;5.43;;
1020;SDS011;499;42.648;23.270;2022-07-10T09:16:30;5.33;;;4.83;;
1020;SDS011;499;42.648;23.270;2022-07-10T09:19:14;5.77;;;5.10;;
1020;SDS011;499;42.648;23.270;2022-07-10T09:21:42;5.33;;;4.93;;
1020;SDS011;499;42.648;23.270;2022-07-10T09:24:11;5.30;;;4.80;;
1020;SDS011;499;42.648;23.270;2022-07-10T09:26:39;6.40;;;5.20;;
1020;SDS011;499;42.648;23.270;2022-07-10T09:29:08;4.97;;;4.57;;
1020;SDS011;499;42.648;23.270;2022-07-10T09:31:49;5.27;;;4.77;;
1020;SDS011;499;42.648;23.270;2022-07-10T09:34:17;5.10;;;4.70;;
1020;SDS011;499;42.648;23.270;2022-07-10T09:36:44;5.47;;;4.97;;
1020;SDS011;499;42.648;23.270;2022-07-10T09:39:13;6.00;;;5.37;;
1020;SDS011;499;42.648;23.270;2022-07-10T09:41:40;6.00;;;5.50;;
1020;SDS011;499;42.648;23.270;2022-07-10T09:44:07;5.53;;;5.13;;
1020;SDS011;499;42.648;23.270;2022-07-10T09:46:35;4.67;;;4.37;;
1020;SDS011;499;42.648;23.270;2022-07-10T09:49:04;6.50;;;5.23;;
1020;SDS011;499;42.648;23.270;2022-07-10T09:51:33;4.60;;;4.20;;
1020;SDS011;499;42.648;23.270;2022-07-10T09:54:02;4.72;;;4.38;;
1020;SDS011;499;42.648;23.270;2022-07-10T09:56:34;4.37;;;4.00;;
1020;SDS011;499;42.648;23.270;2022-07-10T09:59:08;4.68;;;3.70;;
1020;SDS011;499;42.648;23.270;2022-07-10T10:01:37;5.20;;;4.73;;
1020;SDS011;499;42.648;23.270;2022-07-10T10:04:11;5.37;;;4.87;;
1020;SDS011;499;42.648;23.270;2022-07-10T10:06:39;5.90;;;4.32;;
1020;SDS011;499;42.648;23.270;2022-07-10T10:09:08;4.97;;;4.47;;
1020;SDS011;499;42.648;23.270;2022-07-10T10:11:43;4.63;;;4.22;;
1020;SDS011;499;42.648;23.270;2022-07-10T10:14:13;4.57;;;4.28;;
1020;SDS011;499;42.648;23.270;2022-07-10T10:16:45;7.17;;;4.43;;
1020;SDS011;499;42.648;23.270;2022-07-10T10:19:13;4.50;;;4.20;;
1020;SDS011;499;42.648;23.270;2022-07-10T10:21:59;4.37;;;3.97;;
1020;SDS011;499;42.648;23.270;2022-07-10T10:24:28;4.50;;;4.10;;
1020;SDS011;499;42.648;23.270;2022-07-10T10:26:59;4.80;;;4.40;;
1020;SDS011;499;42.648;23.270;2022-07-10T10:29:27;5.03;;;4.38;;
1020;SDS011;499;42.648;23.270;2022-07-10T10:31:55;5.83;;;4.90;;
1020;SDS011;499;42.648;23.270;2022-07-10T10:34:37;5.07;;;4.57;;
1020;SDS011;499;42.648;23.270;2022-07-10T10:37:05;4.93;;;4.43;;
1020;SDS011;499;42.648;23.270;2022-07-10T10:42:34;4.90;;;4.40;;
1020;SDS011;499;42.648;23.270;2022-07-10T10:45:21;4.90;;;4.40;;
1020;SDS011;499;42.648;23.270;2022-07-10T10:47:57;5.13;;;4.70;;
1020;SDS011;499;42.648;23.270;2022-07-10T10:50:35;5.47;;;5.00;;
1020;SDS011;499;42.648;23.270;2022-07-10T10:53:05;5.17;;;4.77;;
1020;SDS011;499;42.648;23.270;2022-07-10T10:55:39;6.20;;;4.73;;
1020;SDS011;499;42.648;23.270;2022-07-10T10:58:15;7.00;;;4.43;;
1020;SDS011;499;42.648;23.270;2022-07-10T11:00:45;5.00;;;4.43;;
1020;SDS011;499;42.648;23.270;2022-07-10T11:03:14;4.50;;;3.87;;
1020;SDS011;499;42.648;23.270;2022-07-10T11:05:49;4.30;;;3.90;;
1020;SDS011;499;42.648;23.270;2022-07-10T11:14:09;4.67;;;4.30;;
1020;SDS011;499;42.648;23.270;2022-07-10T11:16:37;4.60;;;4.13;;
1020;SDS011;499;42.648;23.270;2022-07-10T11:19:18;4.37;;;3.97;;
1020;SDS011;499;42.648;23.270;2022-07-10T11:22:03;5.27;;;3.93;;
1020;SDS011;499;42.648;23.270;2022-07-10T11:25:00;6.70;;;4.57;;
1020;SDS011;499;42.648;23.270;2022-07-10T11:27:46;4.17;;;3.87;;
1020;SDS011;499;42.648;23.270;2022-07-10T11:30:32;4.53;;;4.13;;
1020;SDS011;499;42.648;23.270;2022-07-10T11:33:10;4.50;;;4.10;;
1020;SDS011;499;42.648;23.270;2022-07-10T11:35:37;4.23;;;3.93;;
1020;SDS011;499;42.648;23.270;2022-07-10T11:38:05;4.97;;;4.47;;
1020;SDS011;499;42.648;23.270;2022-07-10T11:40:35;4.60;;;4.13;;
1020;SDS011;499;42.648;23.270;2022-07-10T11:43:02;5.05;;;4.40;;
1020;SDS011;499;42.648;23.270;2022-07-10T11:45:33;4.53;;;4.10;;
1020;SDS011;499;42.648;23.270;2022-07-10T11:48:04;4.43;;;4.03;;
1020;SDS011;499;42.648;23.270;2022-07-10T11:50:34;4.13;;;3.83;;
1020;SDS011;499;42.648;23.270;2022-07-10T11:53:02;4.23;;;3.63;;
1020;SDS011;499;42.648;23.270;2022-07-10T11:55:30;4.63;;;4.27;;
1020;SDS011;499;42.648;23.270;2022-07-10T11:58:12;4.40;;;3.63;;
1020;SDS011;499;42.648;23.270;2022-07-10T12:00:44;4.43;;;4.03;;
1020;SDS011;499;42.648;23.270;2022-07-10T12:03:24;4.57;;;4.17;;
1020;SDS011;499;42.648;23.270;2022-07-10T12:05:51;3.43;;;3.23;;
1020;SDS011;499;42.648;23.270;2022-07-10T12:08:18;3.45;;;3.00;;
1020;SDS011;499;42.648;23.270;2022-07-10T12:10:45;4.93;;;3.50;;
1020;SDS011;499;42.648;23.270;2022-07-10T12:13:13;4.10;;;3.50;;
1020;SDS011;499;42.648;23.270;2022-07-10T12:15:41;3.80;;;3.50;;
1020;SDS011;499;42.648;23.270;2022-07-10T12:18:14;3.90;;;3.50;;
1020;SDS011;499;42.648;23.270;2022-07-10T12:20:43;3.67;;;3.38;;
1020;SDS011;499;42.648;23.270;2022-07-10T12:23:12;4.10;;;3.70;;
1020;SDS011;499;42.648;23.270;2022-07-10T12:25:41;4.03;;;3.73;;
1020;SDS011;499;42.648;23.270;2022-07-10T12:28:09;4.10;;;3.70;;
1020;SDS011;499;42.648;23.270;2022-07-10T12:30:38;4.30;;;3.60;;
1020;SDS011;499;42.648;23.270;2022-07-10T12:33:11;4.00;;;3.70;;
1020;SDS011;499;42.648;23.270;2022-07-10T12:35:52;3.70;;;3.47;;
1020;SDS011;499;42.648;23.270;2022-07-10T12:38:21;5.37;;;4.00;;
1020;SDS011;499;42.648;23.270;2022-07-10T12:40:49;4.10;;;3.70;;
1020;SDS011;499;42.648;23.270;2022-07-10T12:43:26;3.63;;;3.33;;
1020;SDS011;499;42.648;23.270;2022-07-10T12:46:10;4.28;;;3.35;;
1020;SDS011;499;42.648;23.270;2022-07-10T12:48:41;4.13;;;3.23;;
1020;SDS011;499;42.648;23.270;2022-07-10T12:51:22;3.80;;;3.50;;
1020;SDS011;499;42.648;23.270;2022-07-10T12:53:50;3.50;;;3.20;;
1020;SDS011;499;42.648;23.270;2022-07-10T12:56:31;4.40;;;2.50;;
1020;SDS011;499;42.648;23.270;2022-07-10T12:59:01;3.90;;;2.80;;
1020;SDS011;499;42.648;23.270;2022-07-10T13:01:38;3.03;;;2.83;;
1020;SDS011;499;42.648;23.270;2022-07-10T13:04:08;4.00;;;3.00;;
1020;SDS011;499;42.648;23.270;2022-07-10T13:06:35;4.00;;;2.50;;
1020;SDS011;499;42.648;23.270;2022-07-10T13:09:17;3.03;;;2.50;;
1020;SDS011;499;42.648;23.270;2022-07-10T13:11:45;2.30;;;2.10;;
1020;SDS011;499;42.648;23.270;2022-07-10T13:14:12;3.57;;;2.77;;
1020;SDS011;499;42.648;23.270;2022-07-10T13:16:39;3.43;;;2.53;;
1020;SDS011;499;42.648;23.270;2022-07-10T13:19:08;3.03;;;2.53;;
1020;SDS011;499;42.648;23.270;2022-07-10T13:21:35;3.60;;;2.43;;
1020;SDS011;499;42.648;23.270;2022-07-10T13:24:02;2.83;;;2.27;;
1020;SDS011;499;42.648;23.270;2022-07-10T13:26:29;2.70;;;2.50;;
1020;SDS011;499;42.648;23.270;2022-07-10T13:28:57;3.33;;;2.53;;
1020;SDS011;499;42.648;23.270;2022-07-10T13:31:25;2.60;;;2.40;;
1020;SDS011;499;42.648;23.270;2022-07-10T13:33:52;3.93;;;2.57;;
1020;SDS011;499;42.648;23.270;2022-07-10T13:36:20;3.23;;;2.80;;
1020;SDS011;499;42.648;23.270;2022-07-10T13:38:47;2.70;;;2.40;;
1020;SDS011;499;42.648;23.270;2022-07-10T13:41:16;4.23;;;2.27;;
1020;SDS011;499;42.648;23.270;2022-07-10T13:43:43;2.53;;;2.23;;
1020;SDS011;499;42.648;23.270;2022-07-10T13:46:10;4.50;;;2.53;;
1020;SDS011;499;42.648;23.270;2022-07-10T13:48:37;3.20;;;2.20;;
1020;SDS011;499;42.648;23.270;2022-07-10T13:51:04;2.03;;;1.83;;
1020;SDS011;499;42.648;23.270;2022-07-10T13:53:33;3.07;;;2.77;;
1020;SDS011;499;42.648;23.270;2022-07-10T13:56:00;2.57;;;2.37;;
1020;SDS011;499;42.648;23.270;2022-07-10T13:58:27;2.43;;;2.23;;
1020;SDS011;499;42.648;23.270;2022-07-10T14:00:54;3.20;;;2.47;;
1020;SDS011;499;42.648;23.270;2022-07-10T14:03:24;3.43;;;2.57;;
1020;SDS011;499;42.648;23.270;2022-07-10T14:05:51;5.53;;;3.15;;
1020;SDS011;499;42.648;23.270;2022-07-10T14:08:18;2.37;;;2.00;;
1020;SDS011;499;42.648;23.270;2022-07-10T14:10:47;2.60;;;2.30;;
1020;SDS011;499;42.648;23.270;2022-07-10T14:13:14;3.00;;;2.50;;
1020;SDS011;499;42.648;23.270;2022-07-10T14:15:41;2.73;;;1.97;;
1020;SDS011;499;42.648;23.270;2022-07-10T14:18:09;3.40;;;2.47;;
1020;SDS011;499;42.648;23.270;2022-07-10T14:20:36;4.10;;;2.20;;
1020;SDS011;499;42.648;23.270;2022-07-10T14:23:21;2.83;;;2.60;;
1020;SDS011;499;42.648;23.270;2022-07-10T14:25:50;2.77;;;2.57;;
1020;SDS011;499;42.648;23.270;2022-07-10T14:28:19;4.00;;;2.40;;
1020;SDS011;499;42.648;23.270;2022-07-10T14:30:48;3.13;;;2.40;;
1020;SDS011;499;42.648;23.270;2022-07-10T14:33:15;7.35;;;2.85;;
1020;SDS011;499;42.648;23.270;2022-07-10T14:35:43;3.33;;;2.73;;
1020;SDS011;499;42.648;23.270;2022-07-10T14:38:10;4.00;;;2.60;;
1020;SDS011;499;42.648;23.270;2022-07-10T14:40:37;3.17;;;2.30;;
1020;SDS011;499;42.648;23.270;2022-07-10T14:43:06;6.03;;;2.50;;
1020;SDS011;499;42.648;23.270;2022-07-10T14:45:33;2.60;;;2.40;;
1020;SDS011;499;42.648;23.270;2022-07-10T14:48:00;5.23;;;2.60;;
1020;SDS011;499;42.648;23.270;2022-07-10T14:50:27;2.50;;;2.30;;
1020;SDS011;499;42.648;23.270;2022-07-10T14:52:54;4.53;;;2.30;;
1020;SDS011;499;42.648;23.270;2022-07-10T14:55:21;2.97;;;2.57;;
1020;SDS011;499;42.648;23.270;2022-07-10T14:57:49;2.57;;;2.37;;
1020;SDS011;499;42.648;23.270;2022-07-10T15:00:17;4.70;;;2.80;;
1020;SDS011;499;42.648;23.270;2022-07-10T15:02:45;5.23;;;2.60;;
1020;SDS011;499;42.648;23.270;2022-07-10T15:05:12;4.37;;;2.60;;
1020;SDS011;499;42.648;23.270;2022-07-10T15:07:39;2.47;;;2.27;;
1020;SDS011;499;42.648;23.270;2022-07-10T15:10:06;2.40;;;2.20;;
1020;SDS011;499;42.648;23.270;2022-07-10T15:12:34;4.70;;;3.07;;
1020;SDS011;499;42.648;23.270;2022-07-10T15:15:03;2.75;;;2.38;;
1020;SDS011;499;42.648;23.270;2022-07-10T15:17:34;3.33;;;2.70;;
1020;SDS011;499;42.648;23.270;2022-07-10T15:20:01;2.77;;;2.57;;
1020;SDS011;499;42.648;23.270;2022-07-10T15:22:29;3.13;;;2.60;;
1020;SDS011;499;42.648;23.270;2022-07-10T15:24:58;2.90;;;2.60;;